MOL Modern — V7VS6 — position and weather

sailwx.info

Track history (hours):
 
Tides and Currents Weather Stations Pressure Air Temp Water Temp Dewpoint Dewpoint Depression Visibility Wind Speed Wind Dir Waves Ship Positions

MOL Modern

Last reported at 2017-Feb-20 23:33 UTC. Time now 2017-Feb-21 08:05 UTC.
Position N 32°49' W 079°54'.

Length 302 m; draft 11.3 m.

Type: Ship (hazmat cat A). MMSI: 538004203.

Date/timePositionNaut miles runAvg speedWind from/ knotsBaromVisibWave heightAir tempDewpointWater temp
2017-Feb-20 23:33N 32°49' W 079°54'29 0.6
2017-Feb-19 02:28N 32°27' W 079°32'0 0.0
2017-Feb-18 23:28N 32°27' W 079°32'0 0.0
2017-Feb-18 15:13N 32°27' W 079°32'3 4.7
2017-Feb-18 14:33N 32°24' W 079°35'1313.1
2017-Feb-18 13:34N 32°13' W 079°42'2121.1
2017-Feb-18 12:33N 31°54' W 079°55'2121.4
2017-Feb-18 11:33N 31°35' W 080°06'2121.5
2017-Feb-18 10:33N 31°16' W 080°17'2221.6
2017-Feb-18 09:33N 30°57' W 080°29'6011.6
2017-Feb-18 04:25N 30°23' W 081°26'6 6.9
2017-Feb-18 03:33N 30°23' W 081°33'110 3.1
2017-Feb-16 16:24N 31°56' W 080°25'8 9.8
2017-Feb-16 15:33N 31°56' W 080°35'8 8.0
2017-Feb-16 14:32N 31°58' W 080°44'1111.3
2017-Feb-16 13:32N 32°03' W 080°56'7 7.5
2017-Feb-16 12:33N 32°05' W 081°05'4 4.0
2017-Feb-16 11:31N 32°08' W 081°08'0 0.0
2017-Feb-16 10:31N 32°08' W 081°08'0 0.0
2017-Feb-16 09:31N 32°08' W 081°08'0 0.0
2017-Feb-16 08:25N 32°08' W 081°08'0 0.0
2017-Feb-16 07:31N 32°08' W 081°08'0 0.0
2017-Feb-16 06:31N 32°08' W 081°08'0 0.0
2017-Feb-16 05:31N 32°08' W 081°08'0 0.0
2017-Feb-16 04:31N 32°08' W 081°08'0 0.0
2017-Feb-16 03:31N 32°08' W 081°08'0 0.0
2017-Feb-16 02:31N 32°08' W 081°08'0 0.0
2017-Feb-16 01:31N 32°08' W 081°08'0 0.0
2017-Feb-16 00:31N 32°08' W 081°08'0 0.0
2017-Feb-15 23:19N 32°08' W 081°08'0 0.0
2017-Feb-15 22:31N 32°08' W 081°08'0 0.0
2017-Feb-15 21:31N 32°08' W 081°08'0 0.0
2017-Feb-15 20:31N 32°08' W 081°08'0 0.0
2017-Feb-15 19:13N 32°08' W 081°08'0 0.0
2017-Feb-15 18:25N 32°08' W 081°08'0 0.1
2017-Feb-15 17:33N 32°08' W 081°08'2 2.3
2017-Feb-15 16:33N 32°06' W 081°07'6 6.1
2017-Feb-15 15:33N 32°05' W 080°59'1111.2
2017-Feb-15 14:33N 32°00' W 080°48'1010.3
2017-Feb-15 13:33N 31°56' W 080°37'11 8.9
2017-Feb-15 12:20N 31°56' W 080°24'65 3.5
2017-Feb-14 17:32N 31°08' W 079°33'234 6.6
2017-Feb-13 06:14N 27°14' W 079°46'1116.7
2017-Feb-13 05:34N 27°03' W 079°47'1716.8
2017-Feb-13 04:32N 26°46' W 079°48'1717.0
2017-Feb-13 03:33N 26°29' W 079°49'1616.5
2017-Feb-13 02:33N 26°12' W 079°51'1716.6
2017-Feb-13 01:33N 25°57' W 079°57'1313.3
2017-Feb-13 00:33N 25°46' W 080°06'3 2.9
2017-Feb-12 23:26N 25°46' W 080°09'0 0.0
2017-Feb-12 22:26N 25°46' W 080°09'0 0.0
2017-Feb-12 21:29N 25°46' W 080°09'0 0.0
2017-Feb-12 20:29N 25°46' W 080°09'0 0.0
2017-Feb-12 19:29N 25°46' W 080°09'0 0.0
2017-Feb-12 18:32N 25°46' W 080°09'0 0.0
2017-Feb-12 17:32N 25°46' W 080°09'0 0.0
2017-Feb-12 16:32N 25°46' W 080°09'0 0.0
2017-Feb-12 15:32N 25°46' W 080°09'0 0.0
2017-Feb-12 14:32N 25°46' W 080°09'0 0.0
2017-Feb-12 13:32N 25°46' W 080°09'0 0.0
2017-Feb-12 12:32N 25°46' W 080°09'0 0.0
2017-Feb-12 11:32N 25°46' W 080°09'0 0.0
2017-Feb-12 10:33N 25°46' W 080°09'0 0.3
2017-Feb-12 09:33N 25°46' W 080°09'8 7.7
2017-Feb-12 08:33N 25°48' W 080°01'7 6.6
2017-Feb-12 07:33N 25°48' W 079°54'1211.6
2017-Feb-12 06:33N 25°44' W 079°42'1615.7
2017-Feb-12 05:33N 25°30' W 079°35'  
Track history (hours):
 
Tides and Currents Weather Stations Pressure Air Temp Water Temp Dewpoint Dewpoint Depression Visibility Wind Speed Wind Dir Waves Ship Positions

MOL Modern

Last reported at 2017-Feb-20 23:33 UTC. Time now 2017-Feb-21 08:05 UTC.
Position N 32°49' W 079°54'.

Length 302 m; draft 11.3 m.

Type: Ship (hazmat cat A). MMSI: 538004203.

Date/timePositionNaut miles runAvg speedWind from/ knotsBaromVisibWave heightAir tempDewpointWater temp
2017-Feb-20 23:33N 32°49' W 079°54'29 0.6
2017-Feb-19 02:28N 32°27' W 079°32'0 0.0
2017-Feb-18 23:28N 32°27' W 079°32'0 0.0
2017-Feb-18 15:13N 32°27' W 079°32'3 4.7
2017-Feb-18 14:33N 32°24' W 079°35'1313.1
2017-Feb-18 13:34N 32°13' W 079°42'2121.1
2017-Feb-18 12:33N 31°54' W 079°55'2121.4
2017-Feb-18 11:33N 31°35' W 080°06'2121.5
2017-Feb-18 10:33N 31°16' W 080°17'2221.6
2017-Feb-18 09:33N 30°57' W 080°29'6011.6
2017-Feb-18 04:25N 30°23' W 081°26'6 6.9
2017-Feb-18 03:33N 30°23' W 081°33'110 3.1
2017-Feb-16 16:24N 31°56' W 080°25'8 9.8
2017-Feb-16 15:33N 31°56' W 080°35'8 8.0
2017-Feb-16 14:32N 31°58' W 080°44'1111.3
2017-Feb-16 13:32N 32°03' W 080°56'7 7.5
2017-Feb-16 12:33N 32°05' W 081°05'4 4.0
2017-Feb-16 11:31N 32°08' W 081°08'0 0.0
2017-Feb-16 10:31N 32°08' W 081°08'0 0.0
2017-Feb-16 09:31N 32°08' W 081°08'0 0.0
2017-Feb-16 08:25N 32°08' W 081°08'0 0.0
2017-Feb-16 07:31N 32°08' W 081°08'0 0.0
2017-Feb-16 06:31N 32°08' W 081°08'0 0.0
2017-Feb-16 05:31N 32°08' W 081°08'0 0.0
2017-Feb-16 04:31N 32°08' W 081°08'0 0.0
2017-Feb-16 03:31N 32°08' W 081°08'0 0.0
2017-Feb-16 02:31N 32°08' W 081°08'0 0.0
2017-Feb-16 01:31N 32°08' W 081°08'0 0.0
2017-Feb-16 00:31N 32°08' W 081°08'0 0.0
2017-Feb-15 23:19N 32°08' W 081°08'0 0.0
2017-Feb-15 22:31N 32°08' W 081°08'0 0.0
2017-Feb-15 21:31N 32°08' W 081°08'0 0.0
2017-Feb-15 20:31N 32°08' W 081°08'0 0.0
2017-Feb-15 19:13N 32°08' W 081°08'0 0.0
2017-Feb-15 18:25N 32°08' W 081°08'0 0.1
2017-Feb-15 17:33N 32°08' W 081°08'2 2.3
2017-Feb-15 16:33N 32°06' W 081°07'6 6.1
2017-Feb-15 15:33N 32°05' W 080°59'1111.2
2017-Feb-15 14:33N 32°00' W 080°48'1010.3
2017-Feb-15 13:33N 31°56' W 080°37'11 8.9
2017-Feb-15 12:20N 31°56' W 080°24'65 3.5
2017-Feb-14 17:32N 31°08' W 079°33'234 6.6
2017-Feb-13 06:14N 27°14' W 079°46'1116.7
2017-Feb-13 05:34N 27°03' W 079°47'1716.8
2017-Feb-13 04:32N 26°46' W 079°48'1717.0
2017-Feb-13 03:33N 26°29' W 079°49'1616.5
2017-Feb-13 02:33N 26°12' W 079°51'1716.6
2017-Feb-13 01:33N 25°57' W 079°57'1313.3
2017-Feb-13 00:33N 25°46' W 080°06'3 2.9
2017-Feb-12 23:26N 25°46' W 080°09'0 0.0
2017-Feb-12 22:26N 25°46' W 080°09'0 0.0
2017-Feb-12 21:29N 25°46' W 080°09'0 0.0
2017-Feb-12 20:29N 25°46' W 080°09'0 0.0
2017-Feb-12 19:29N 25°46' W 080°09'0 0.0
2017-Feb-12 18:32N 25°46' W 080°09'0 0.0
2017-Feb-12 17:32N 25°46' W 080°09'0 0.0
2017-Feb-12 16:32N 25°46' W 080°09'0 0.0
2017-Feb-12 15:32N 25°46' W 080°09'0 0.0
2017-Feb-12 14:32N 25°46' W 080°09'0 0.0
2017-Feb-12 13:32N 25°46' W 080°09'0 0.0
2017-Feb-12 12:32N 25°46' W 080°09'0 0.0
2017-Feb-12 11:32N 25°46' W 080°09'0 0.0
2017-Feb-12 10:33N 25°46' W 080°09'0 0.3
2017-Feb-12 09:33N 25°46' W 080°09'8 7.7
2017-Feb-12 08:33N 25°48' W 080°01'7 6.6
2017-Feb-12 07:33N 25°48' W 079°54'1211.6
2017-Feb-12 06:33N 25°44' W 079°42'1615.7
2017-Feb-12 05:33N 25°30' W 079°35'  

Dump ship's entire track history